sensor_id;sensor_type;location;lat;lon;timestamp;temperature;humidity
8095;DHT22;4090;49.270;8.696;2022-11-20T00:01:52;7.00;99.90
8095;DHT22;4090;49.270;8.696;2022-11-20T00:04:35;7.10;99.90
8095;DHT22;4090;49.270;8.696;2022-11-20T00:07:17;6.90;99.90
8095;DHT22;4090;49.270;8.696;2022-11-20T00:09:59;6.90;99.90
8095;DHT22;4090;49.270;8.696;2022-11-20T00:12:40;7.10;99.90
8095;DHT22;4090;49.270;8.696;2022-11-20T00:15:22;7.00;99.90
8095;DHT22;4090;49.270;8.696;2022-11-20T00:18:04;7.10;99.90
8095;DHT22;4090;49.270;8.696;2022-11-20T00:20:47;7.00;99.90
8095;DHT22;4090;49.270;8.696;2022-11-20T00:23:29;7.10;99.90
8095;DHT22;4090;49.270;8.696;2022-11-20T00:26:11;7.10;99.90
8095;DHT22;4090;49.270;8.696;2022-11-20T00:28:54;7.00;99.90
8095;DHT22;4090;49.270;8.696;2022-11-20T00:31:36;6.90;99.90
8095;DHT22;4090;49.270;8.696;2022-11-20T00:34:19;7.00;99.90
8095;DHT22;4090;49.270;8.696;2022-11-20T00:37:02;7.00;99.90
8095;DHT22;4090;49.270;8.696;2022-11-20T00:39:44;6.90;99.90
8095;DHT22;4090;49.270;8.696;2022-11-20T00:42:26;7.10;99.90
8095;DHT22;4090;49.270;8.696;2022-11-20T00:45:07;7.10;99.90
8095;DHT22;4090;49.270;8.696;2022-11-20T00:47:49;6.90;99.90
8095;DHT22;4090;49.270;8.696;2022-11-20T00:50:31;7.00;99.90
8095;DHT22;4090;49.270;8.696;2022-11-20T00:53:14;7.00;99.90
8095;DHT22;4090;49.270;8.696;2022-11-20T00:55:57;7.10;99.90
8095;DHT22;4090;49.270;8.696;2022-11-20T00:58:39;7.20;99.90
8095;DHT22;4090;49.270;8.696;2022-11-20T01:01:22;7.00;99.90
8095;DHT22;4090;49.270;8.696;2022-11-20T01:04:05;7.10;99.90
8095;DHT22;4090;49.270;8.696;2022-11-20T01:06:47;7.10;99.90
8095;DHT22;4090;49.270;8.696;2022-11-20T01:09:30;6.90;99.90
8095;DHT22;4090;49.270;8.696;2022-11-20T01:12:12;7.10;99.90
8095;DHT22;4090;49.270;8.696;2022-11-20T01:14:53;7.10;99.90
8095;DHT22;4090;49.270;8.696;2022-11-20T01:17:35;7.00;99.90
8095;DHT22;4090;49.270;8.696;2022-11-20T01:20:17;7.00;99.90
8095;DHT22;4090;49.270;8.696;2022-11-20T01:22:58;7.20;99.90
8095;DHT22;4090;49.270;8.696;2022-11-20T01:25:42;6.90;99.90
8095;DHT22;4090;49.270;8.696;2022-11-20T01:28:23;7.00;99.90
8095;DHT22;4090;49.270;8.696;2022-11-20T01:31:10;7.10;99.90
8095;DHT22;4090;49.270;8.696;2022-11-20T01:33:53;6.90;99.90
8095;DHT22;4090;49.270;8.696;2022-11-20T01:36:35;6.90;99.90
8095;DHT22;4090;49.270;8.696;2022-11-20T01:39:18;6.80;99.90
8095;DHT22;4090;49.270;8.696;2022-11-20T01:42:01;7.20;99.90
8095;DHT22;4090;49.270;8.696;2022-11-20T01:45:00;7.10;99.90
8095;DHT22;4090;49.270;8.696;2022-11-20T01:47:44;6.90;99.90
8095;DHT22;4090;49.270;8.696;2022-11-20T01:50:27;7.20;99.90
8095;DHT22;4090;49.270;8.696;2022-11-20T01:53:09;6.90;99.90
8095;DHT22;4090;49.270;8.696;2022-11-20T01:55:53;7.20;99.90
8095;DHT22;4090;49.270;8.696;2022-11-20T01:58:38;7.00;99.90
8095;DHT22;4090;49.270;8.696;2022-11-20T02:01:22;7.00;99.90
8095;DHT22;4090;49.270;8.696;2022-11-20T02:04:04;7.20;99.90
8095;DHT22;4090;49.270;8.696;2022-11-20T02:06:47;7.20;99.90
8095;DHT22;4090;49.270;8.696;2022-11-20T02:09:29;7.20;99.90
8095;DHT22;4090;49.270;8.696;2022-11-20T02:12:11;7.20;99.90
8095;DHT22;4090;49.270;8.696;2022-11-20T02:15:14;7.00;99.90
8095;DHT22;4090;49.270;8.696;2022-11-20T02:17:55;7.10;99.90
8095;DHT22;4090;49.270;8.696;2022-11-20T02:20:37;7.50;99.90
8095;DHT22;4090;49.270;8.696;2022-11-20T02:23:19;6.90;99.90
8095;DHT22;4090;49.270;8.696;2022-11-20T02:26:06;6.90;99.90
8095;DHT22;4090;49.270;8.696;2022-11-20T02:28:48;6.90;99.90
8095;DHT22;4090;49.270;8.696;2022-11-20T02:31:34;7.10;99.90
8095;DHT22;4090;49.270;8.696;2022-11-20T02:34:16;7.10;99.90
8095;DHT22;4090;49.270;8.696;2022-11-20T02:36:58;6.80;99.90
8095;DHT22;4090;49.270;8.696;2022-11-20T02:43:43;7.20;99.90
8095;DHT22;4090;49.270;8.696;2022-11-20T02:46:25;6.90;99.90
8095;DHT22;4090;49.270;8.696;2022-11-20T02:49:07;6.90;99.90
8095;DHT22;4090;49.270;8.696;2022-11-20T02:51:48;7.10;99.90
8095;DHT22;4090;49.270;8.696;2022-11-20T02:54:30;7.30;99.90
8095;DHT22;4090;49.270;8.696;2022-11-20T02:57:12;7.00;99.90
8095;DHT22;4090;49.270;8.696;2022-11-20T02:59:55;7.10;99.90
8095;DHT22;4090;49.270;8.696;2022-11-20T03:02:37;7.00;99.90
8095;DHT22;4090;49.270;8.696;2022-11-20T03:05:19;7.20;99.90
8095;DHT22;4090;49.270;8.696;2022-11-20T03:08:00;6.90;99.90
8095;DHT22;4090;49.270;8.696;2022-11-20T03:10:42;7.10;99.90
8095;DHT22;4090;49.270;8.696;2022-11-20T03:13:24;7.20;99.90
8095;DHT22;4090;49.270;8.696;2022-11-20T03:16:09;7.10;99.90
8095;DHT22;4090;49.270;8.696;2022-11-20T03:18:52;6.90;99.90
8095;DHT22;4090;49.270;8.696;2022-11-20T03:21:34;7.30;99.90
8095;DHT22;4090;49.270;8.696;2022-11-20T03:24:15;7.10;99.90
8095;DHT22;4090;49.270;8.696;2022-11-20T03:26:57;7.20;99.90
8095;DHT22;4090;49.270;8.696;2022-11-20T03:29:39;7.00;99.90
8095;DHT22;4090;49.270;8.696;2022-11-20T03:32:22;7.40;99.90
8095;DHT22;4090;49.270;8.696;2022-11-20T03:35:04;7.00;99.90
8095;DHT22;4090;49.270;8.696;2022-11-20T03:37:46;7.10;99.90
8095;DHT22;4090;49.270;8.696;2022-11-20T03:40:28;7.00;99.90
8095;DHT22;4090;49.270;8.696;2022-11-20T03:43:10;7.30;99.90
8095;DHT22;4090;49.270;8.696;2022-11-20T03:45:52;7.00;99.90
8095;DHT22;4090;49.270;8.696;2022-11-20T03:48:35;6.90;99.90
8095;DHT22;4090;49.270;8.696;2022-11-20T03:51:17;6.70;99.90
8095;DHT22;4090;49.270;8.696;2022-11-20T03:54:00;7.40;99.90
8095;DHT22;4090;49.270;8.696;2022-11-20T03:56:42;7.30;99.90
8095;DHT22;4090;49.270;8.696;2022-11-20T03:59:24;7.10;99.90
8095;DHT22;4090;49.270;8.696;2022-11-20T04:02:06;7.20;99.90
8095;DHT22;4090;49.270;8.696;2022-11-20T04:04:49;7.00;99.90
8095;DHT22;4090;49.270;8.696;2022-11-20T04:07:30;6.90;99.90
8095;DHT22;4090;49.270;8.696;2022-11-20T04:10:12;7.10;99.90
8095;DHT22;4090;49.270;8.696;2022-11-20T04:12:54;6.80;99.90
8095;DHT22;4090;49.270;8.696;2022-11-20T04:15:36;6.90;99.90
8095;DHT22;4090;49.270;8.696;2022-11-20T04:18:18;7.00;99.90
8095;DHT22;4090;49.270;8.696;2022-11-20T04:21:01;7.30;99.90
8095;DHT22;4090;49.270;8.696;2022-11-20T04:23:43;7.20;99.90
8095;DHT22;4090;49.270;8.696;2022-11-20T04:26:26;7.10;99.90
8095;DHT22;4090;49.270;8.696;2022-11-20T04:29:09;7.00;99.90
8095;DHT22;4090;49.270;8.696;2022-11-20T04:31:51;7.10;99.90
8095;DHT22;4090;49.270;8.696;2022-11-20T04:34:33;7.20;99.90
8095;DHT22;4090;49.270;8.696;2022-11-20T04:37:16;7.10;99.90
8095;DHT22;4090;49.270;8.696;2022-11-20T04:39:58;6.90;99.90
8095;DHT22;4090;49.270;8.696;2022-11-20T04:42:39;7.30;99.90
8095;DHT22;4090;49.270;8.696;2022-11-20T04:45:21;7.20;99.90
8095;DHT22;4090;49.270;8.696;2022-11-20T04:48:03;7.30;99.90
8095;DHT22;4090;49.270;8.696;2022-11-20T04:50:45;7.20;99.90
8095;DHT22;4090;49.270;8.696;2022-11-20T04:53:28;6.80;99.90
8095;DHT22;4090;49.270;8.696;2022-11-20T04:56:11;7.20;99.90
8095;DHT22;4090;49.270;8.696;2022-11-20T04:58:53;7.00;99.90
8095;DHT22;4090;49.270;8.696;2022-11-20T05:01:34;7.20;99.90
8095;DHT22;4090;49.270;8.696;2022-11-20T05:04:16;7.10;99.90
8095;DHT22;4090;49.270;8.696;2022-11-20T05:06:58;7.00;99.90
8095;DHT22;4090;49.270;8.696;2022-11-20T05:09:41;7.20;99.90
8095;DHT22;4090;49.270;8.696;2022-11-20T05:12:23;7.30;99.90
8095;DHT22;4090;49.270;8.696;2022-11-20T05:15:05;7.00;99.90
8095;DHT22;4090;49.270;8.696;2022-11-20T05:17:47;7.30;99.90
8095;DHT22;4090;49.270;8.696;2022-11-20T05:20:29;7.40;99.90
8095;DHT22;4090;49.270;8.696;2022-11-20T05:23:10;7.30;99.90
8095;DHT22;4090;49.270;8.696;2022-11-20T05:25:54;7.30;99.90
8095;DHT22;4090;49.270;8.696;2022-11-20T05:28:36;7.20;99.90
8095;DHT22;4090;49.270;8.696;2022-11-20T05:31:18;7.20;99.90
8095;DHT22;4090;49.270;8.696;2022-11-20T05:34:00;7.10;99.90
8095;DHT22;4090;49.270;8.696;2022-11-20T05:36:41;7.30;99.90
8095;DHT22;4090;49.270;8.696;2022-11-20T05:39:23;7.10;99.90
8095;DHT22;4090;49.270;8.696;2022-11-20T05:42:06;7.10;99.90
8095;DHT22;4090;49.270;8.696;2022-11-20T05:45:06;7.20;99.90
8095;DHT22;4090;49.270;8.696;2022-11-20T05:47:48;7.40;99.90
8095;DHT22;4090;49.270;8.696;2022-11-20T05:50:31;7.50;99.90
8095;DHT22;4090;49.270;8.696;2022-11-20T05:53:12;7.20;99.90
8095;DHT22;4090;49.270;8.696;2022-11-20T05:55:57;7.30;99.90
8095;DHT22;4090;49.270;8.696;2022-11-20T05:58:41;7.30;99.90
8095;DHT22;4090;49.270;8.696;2022-11-20T06:01:23;7.50;99.90
8095;DHT22;4090;49.270;8.696;2022-11-20T06:04:05;6.90;99.90
8095;DHT22;4090;49.270;8.696;2022-11-20T06:06:47;7.40;99.90
8095;DHT22;4090;49.270;8.696;2022-11-20T06:09:28;7.30;99.90
8095;DHT22;4090;49.270;8.696;2022-11-20T06:12:10;7.50;99.90
8095;DHT22;4090;49.270;8.696;2022-11-20T06:14:53;7.10;99.90
8095;DHT22;4090;49.270;8.696;2022-11-20T06:17:35;7.30;99.90
8095;DHT22;4090;49.270;8.696;2022-11-20T06:20:17;7.50;99.90
8095;DHT22;4090;49.270;8.696;2022-11-20T06:22:58;7.30;99.90
8095;DHT22;4090;49.270;8.696;2022-11-20T06:25:41;7.60;99.90
8095;DHT22;4090;49.270;8.696;2022-11-20T06:28:23;7.50;99.90
8095;DHT22;4090;49.270;8.696;2022-11-20T06:31:06;7.00;99.90
8095;DHT22;4090;49.270;8.696;2022-11-20T06:33:48;7.30;99.90
8095;DHT22;4090;49.270;8.696;2022-11-20T06:36:30;7.10;99.90
8095;DHT22;4090;49.270;8.696;2022-11-20T06:39:12;7.40;99.90
8095;DHT22;4090;49.270;8.696;2022-11-20T06:41:54;7.00;99.90
8095;DHT22;4090;49.270;8.696;2022-11-20T06:44:36;7.50;99.90
8095;DHT22;4090;49.270;8.696;2022-11-20T06:47:19;7.30;99.90
8095;DHT22;4090;49.270;8.696;2022-11-20T06:50:00;7.30;99.90
8095;DHT22;4090;49.270;8.696;2022-11-20T06:52:42;7.10;99.90
8095;DHT22;4090;49.270;8.696;2022-11-20T06:55:24;7.60;99.90
8095;DHT22;4090;49.270;8.696;2022-11-20T06:58:06;7.60;99.90
8095;DHT22;4090;49.270;8.696;2022-11-20T07:00:47;7.40;99.90
8095;DHT22;4090;49.270;8.696;2022-11-20T07:03:31;7.60;99.90
8095;DHT22;4090;49.270;8.696;2022-11-20T07:06:13;7.50;99.90
8095;DHT22;4090;49.270;8.696;2022-11-20T07:08:54;7.40;99.90
8095;DHT22;4090;49.270;8.696;2022-11-20T07:11:36;7.40;99.90
8095;DHT22;4090;49.270;8.696;2022-11-20T07:14:18;7.60;99.90
8095;DHT22;4090;49.270;8.696;2022-11-20T07:17:00;7.60;99.90
8095;DHT22;4090;49.270;8.696;2022-11-20T07:19:43;7.50;99.90
8095;DHT22;4090;49.270;8.696;2022-11-20T07:22:25;7.80;99.90
8095;DHT22;4090;49.270;8.696;2022-11-20T07:25:07;7.90;99.90
8095;DHT22;4090;49.270;8.696;2022-11-20T07:27:49;7.80;99.90
8095;DHT22;4090;49.270;8.696;2022-11-20T07:30:31;8.10;99.90
8095;DHT22;4090;49.270;8.696;2022-11-20T07:33:13;7.80;99.90
8095;DHT22;4090;49.270;8.696;2022-11-20T07:35:56;7.90;99.90
8095;DHT22;4090;49.270;8.696;2022-11-20T07:38:39;7.80;99.90
8095;DHT22;4090;49.270;8.696;2022-11-20T07:41:21;7.80;99.90
8095;DHT22;4090;49.270;8.696;2022-11-20T07:44:03;7.90;99.90
8095;DHT22;4090;49.270;8.696;2022-11-20T07:46:45;7.80;99.90
8095;DHT22;4090;49.270;8.696;2022-11-20T07:49:27;7.80;99.90
8095;DHT22;4090;49.270;8.696;2022-11-20T07:52:10;7.90;99.90
8095;DHT22;4090;49.270;8.696;2022-11-20T07:54:52;8.00;99.90
8095;DHT22;4090;49.270;8.696;2022-11-20T07:57:33;8.00;99.90
8095;DHT22;4090;49.270;8.696;2022-11-20T08:00:15;7.90;99.90
8095;DHT22;4090;49.270;8.696;2022-11-20T08:02:57;7.80;99.90
8095;DHT22;4090;49.270;8.696;2022-11-20T08:05:39;7.80;99.90
8095;DHT22;4090;49.270;8.696;2022-11-20T08:08:22;8.00;99.90
8095;DHT22;4090;49.270;8.696;2022-11-20T08:11:04;8.00;99.90
8095;DHT22;4090;49.270;8.696;2022-11-20T08:14:03;7.90;99.90
8095;DHT22;4090;49.270;8.696;2022-11-20T08:16:54;8.00;99.90
8095;DHT22;4090;49.270;8.696;2022-11-20T08:19:36;8.00;99.90
8095;DHT22;4090;49.270;8.696;2022-11-20T08:22:18;8.00;99.90
8095;DHT22;4090;49.270;8.696;2022-11-20T08:25:02;7.90;99.90
8095;DHT22;4090;49.270;8.696;2022-11-20T08:27:44;8.30;99.90
8095;DHT22;4090;49.270;8.696;2022-11-20T08:30:26;7.90;99.90
8095;DHT22;4090;49.270;8.696;2022-11-20T08:33:08;8.00;99.90
8095;DHT22;4090;49.270;8.696;2022-11-20T08:35:50;8.20;99.90
8095;DHT22;4090;49.270;8.696;2022-11-20T08:38:32;8.10;99.90
8095;DHT22;4090;49.270;8.696;2022-11-20T08:41:15;7.90;99.90
8095;DHT22;4090;49.270;8.696;2022-11-20T08:44:06;8.40;99.90
8095;DHT22;4090;49.270;8.696;2022-11-20T08:46:48;8.40;99.90
8095;DHT22;4090;49.270;8.696;2022-11-20T08:49:30;8.20;99.90
8095;DHT22;4090;49.270;8.696;2022-11-20T08:52:12;8.00;99.90
8095;DHT22;4090;49.270;8.696;2022-11-20T08:54:53;8.20;99.90
8095;DHT22;4090;49.270;8.696;2022-11-20T08:57:37;8.20;99.90
8095;DHT22;4090;49.270;8.696;2022-11-20T09:00:19;8.30;99.90
8095;DHT22;4090;49.270;8.696;2022-11-20T09:03:01;8.10;99.90
8095;DHT22;4090;49.270;8.696;2022-11-20T09:05:42;8.10;99.90
8095;DHT22;4090;49.270;8.696;2022-11-20T09:08:24;8.20;99.90
8095;DHT22;4090;49.270;8.696;2022-11-20T09:11:06;8.20;99.90
8095;DHT22;4090;49.270;8.696;2022-11-20T09:13:49;8.00;99.90
8095;DHT22;4090;49.270;8.696;2022-11-20T09:16:31;8.20;99.90
8095;DHT22;4090;49.270;8.696;2022-11-20T09:19:13;8.30;99.90
8095;DHT22;4090;49.270;8.696;2022-11-20T09:21:55;8.40;99.90
8095;DHT22;4090;49.270;8.696;2022-11-20T09:24:36;8.30;99.90
8095;DHT22;4090;49.270;8.696;2022-11-20T09:27:18;8.50;99.90
8095;DHT22;4090;49.270;8.696;2022-11-20T09:30:03;8.40;99.90
8095;DHT22;4090;49.270;8.696;2022-11-20T09:32:45;8.30;99.90
8095;DHT22;4090;49.270;8.696;2022-11-20T09:35:27;8.40;99.90
8095;DHT22;4090;49.270;8.696;2022-11-20T09:38:09;8.60;99.90
8095;DHT22;4090;49.270;8.696;2022-11-20T09:40:53;8.40;99.90
8095;DHT22;4090;49.270;8.696;2022-11-20T09:43:40;8.40;99.90
8095;DHT22;4090;49.270;8.696;2022-11-20T09:46:29;8.60;99.90
8095;DHT22;4090;49.270;8.696;2022-11-20T09:49:15;8.80;99.90
8095;DHT22;4090;49.270;8.696;2022-11-20T09:52:05;8.60;99.90
8095;DHT22;4090;49.270;8.696;2022-11-20T09:54:52;8.70;99.90
8095;DHT22;4090;49.270;8.696;2022-11-20T09:57:36;8.50;99.90
8095;DHT22;4090;49.270;8.696;2022-11-20T10:00:18;8.50;99.90
8095;DHT22;4090;49.270;8.696;2022-11-20T10:03:03;8.60;99.90
8095;DHT22;4090;49.270;8.696;2022-11-20T10:05:47;8.50;99.90
8095;DHT22;4090;49.270;8.696;2022-11-20T10:08:32;8.60;99.90
8095;DHT22;4090;49.270;8.696;2022-11-20T10:11:18;8.90;99.90
8095;DHT22;4090;49.270;8.696;2022-11-20T10:14:06;8.60;99.90
8095;DHT22;4090;49.270;8.696;2022-11-20T10:16:54;8.60;99.90
8095;DHT22;4090;49.270;8.696;2022-11-20T10:19:43;8.70;99.90
8095;DHT22;4090;49.270;8.696;2022-11-20T10:22:30;8.60;99.90
8095;DHT22;4090;49.270;8.696;2022-11-20T10:25:14;8.30;99.90
8095;DHT22;4090;49.270;8.696;2022-11-20T10:28:00;8.60;99.90
8095;DHT22;4090;49.270;8.696;2022-11-20T10:30:46;8.70;99.90
8095;DHT22;4090;49.270;8.696;2022-11-20T10:33:29;8.60;99.90
8095;DHT22;4090;49.270;8.696;2022-11-20T10:36:16;8.50;99.90
8095;DHT22;4090;49.270;8.696;2022-11-20T10:39:01;8.50;99.90
8095;DHT22;4090;49.270;8.696;2022-11-20T10:41:46;8.60;99.90
8095;DHT22;4090;49.270;8.696;2022-11-20T10:44:30;8.60;99.90
8095;DHT22;4090;49.270;8.696;2022-11-20T10:47:30;9.00;99.90
8095;DHT22;4090;49.270;8.696;2022-11-20T10:50:14;8.70;99.90
8095;DHT22;4090;49.270;8.696;2022-11-20T10:53:00;8.70;99.90
8095;DHT22;4090;49.270;8.696;2022-11-20T10:55:45;9.00;99.90
8095;DHT22;4090;49.270;8.696;2022-11-20T10:58:30;8.70;99.90
8095;DHT22;4090;49.270;8.696;2022-11-20T11:01:17;9.00;99.90
8095;DHT22;4090;49.270;8.696;2022-11-20T11:03:59;8.80;99.90
8095;DHT22;4090;49.270;8.696;2022-11-20T11:06:42;8.70;99.90
8095;DHT22;4090;49.270;8.696;2022-11-20T11:09:28;8.70;99.90
8095;DHT22;4090;49.270;8.696;2022-11-20T11:12:11;8.80;99.90
8095;DHT22;4090;49.270;8.696;2022-11-20T11:14:53;8.90;99.90
8095;DHT22;4090;49.270;8.696;2022-11-20T11:17:35;8.90;99.90
8095;DHT22;4090;49.270;8.696;2022-11-20T11:20:17;9.00;99.90
8095;DHT22;4090;49.270;8.696;2022-11-20T11:23:00;9.10;99.90
8095;DHT22;4090;49.270;8.696;2022-11-20T11:25:43;9.00;99.90
8095;DHT22;4090;49.270;8.696;2022-11-20T11:28:37;9.10;99.90
8095;DHT22;4090;49.270;8.696;2022-11-20T11:31:22;9.00;99.90
8095;DHT22;4090;49.270;8.696;2022-11-20T11:34:04;8.90;99.90
8095;DHT22;4090;49.270;8.696;2022-11-20T11:36:49;9.00;99.90
8095;DHT22;4090;49.270;8.696;2022-11-20T11:39:33;9.20;99.90
8095;DHT22;4090;49.270;8.696;2022-11-20T11:42:17;9.40;99.90
8095;DHT22;4090;49.270;8.696;2022-11-20T11:44:59;9.50;99.90
8095;DHT22;4090;49.270;8.696;2022-11-20T11:47:46;9.40;99.90
8095;DHT22;4090;49.270;8.696;2022-11-20T11:50:29;9.40;99.90
8095;DHT22;4090;49.270;8.696;2022-11-20T11:53:12;9.40;99.90
8095;DHT22;4090;49.270;8.696;2022-11-20T11:55:55;9.50;99.90
8095;DHT22;4090;49.270;8.696;2022-11-20T11:58:41;9.40;99.90
8095;DHT22;4090;49.270;8.696;2022-11-20T12:01:25;9.50;99.90
8095;DHT22;4090;49.270;8.696;2022-11-20T12:04:10;9.40;99.90
8095;DHT22;4090;49.270;8.696;2022-11-20T12:06:57;9.30;99.90
8095;DHT22;4090;49.270;8.696;2022-11-20T12:09:41;9.40;99.90
8095;DHT22;4090;49.270;8.696;2022-11-20T12:12:26;9.50;99.90
8095;DHT22;4090;49.270;8.696;2022-11-20T12:15:10;9.30;99.90
8095;DHT22;4090;49.270;8.696;2022-11-20T12:17:53;9.20;99.90
8095;DHT22;4090;49.270;8.696;2022-11-20T12:20:36;9.20;99.90
8095;DHT22;4090;49.270;8.696;2022-11-20T12:23:24;9.20;99.90
8095;DHT22;4090;49.270;8.696;2022-11-20T12:26:11;9.20;99.90
8095;DHT22;4090;49.270;8.696;2022-11-20T12:28:58;9.00;99.90
8095;DHT22;4090;49.270;8.696;2022-11-20T12:31:46;9.00;99.90
8095;DHT22;4090;49.270;8.696;2022-11-20T12:37:33;9.10;99.90
8095;DHT22;4090;49.270;8.696;2022-11-20T12:40:23;9.10;99.90
8095;DHT22;4090;49.270;8.696;2022-11-20T12:43:11;9.20;99.90
8095;DHT22;4090;49.270;8.696;2022-11-20T12:46:21;9.70;99.90
8095;DHT22;4090;49.270;8.696;2022-11-20T12:49:14;9.60;99.90
8095;DHT22;4090;49.270;8.696;2022-11-20T12:52:15;9.60;99.90
8095;DHT22;4090;49.270;8.696;2022-11-20T12:55:09;9.80;99.90
8095;DHT22;4090;49.270;8.696;2022-11-20T12:57:53;9.70;99.90
8095;DHT22;4090;49.270;8.696;2022-11-20T13:00:36;9.50;99.90
8095;DHT22;4090;49.270;8.696;2022-11-20T13:03:35;9.60;99.90
8095;DHT22;4090;49.270;8.696;2022-11-20T13:06:19;9.70;99.90
8095;DHT22;4090;49.270;8.696;2022-11-20T13:09:01;9.70;99.90
8095;DHT22;4090;49.270;8.696;2022-11-20T13:11:44;9.70;99.90
8095;DHT22;4090;49.270;8.696;2022-11-20T13:14:31;9.70;99.90
8095;DHT22;4090;49.270;8.696;2022-11-20T13:17:16;9.70;99.90
8095;DHT22;4090;49.270;8.696;2022-11-20T13:20:01;9.80;99.90
8095;DHT22;4090;49.270;8.696;2022-11-20T13:22:46;9.70;99.90
8095;DHT22;4090;49.270;8.696;2022-11-20T13:25:29;9.90;99.90
8095;DHT22;4090;49.270;8.696;2022-11-20T13:31:09;10.00;99.90
8095;DHT22;4090;49.270;8.696;2022-11-20T13:34:04;10.00;99.90
8095;DHT22;4090;49.270;8.696;2022-11-20T13:36:50;10.00;99.90
8095;DHT22;4090;49.270;8.696;2022-11-20T13:39:34;10.20;99.90
8095;DHT22;4090;49.270;8.696;2022-11-20T13:42:20;10.30;99.90
8095;DHT22;4090;49.270;8.696;2022-11-20T13:45:08;10.20;99.90
8095;DHT22;4090;49.270;8.696;2022-11-20T13:47:51;10.00;99.90
8095;DHT22;4090;49.270;8.696;2022-11-20T13:50:40;10.00;99.90
8095;DHT22;4090;49.270;8.696;2022-11-20T13:53:28;9.90;99.90
8095;DHT22;4090;49.270;8.696;2022-11-20T13:56:17;9.90;99.90
8095;DHT22;4090;49.270;8.696;2022-11-20T13:59:05;9.80;99.90
8095;DHT22;4090;49.270;8.696;2022-11-20T14:01:51;9.90;99.90
8095;DHT22;4090;49.270;8.696;2022-11-20T14:04:33;9.90;99.90
8095;DHT22;4090;49.270;8.696;2022-11-20T14:07:16;9.90;99.90
8095;DHT22;4090;49.270;8.696;2022-11-20T14:09:59;9.90;99.90
8095;DHT22;4090;49.270;8.696;2022-11-20T14:12:42;9.80;99.90
8095;DHT22;4090;49.270;8.696;2022-11-20T14:15:25;9.60;99.90
8095;DHT22;4090;49.270;8.696;2022-11-20T14:18:11;9.50;99.90
8095;DHT22;4090;49.270;8.696;2022-11-20T14:20:53;9.70;99.90
8095;DHT22;4090;49.270;8.696;2022-11-20T14:23:35;9.80;99.90
8095;DHT22;4090;49.270;8.696;2022-11-20T14:26:19;9.80;99.90
8095;DHT22;4090;49.270;8.696;2022-11-20T14:29:02;9.80;99.90
8095;DHT22;4090;49.270;8.696;2022-11-20T14:31:44;9.70;99.90
8095;DHT22;4090;49.270;8.696;2022-11-20T14:34:27;9.50;99.90
8095;DHT22;4090;49.270;8.696;2022-11-20T14:37:10;9.60;99.90
8095;DHT22;4090;49.270;8.696;2022-11-20T14:39:53;9.90;99.90
8095;DHT22;4090;49.270;8.696;2022-11-20T14:42:35;9.80;99.90
8095;DHT22;4090;49.270;8.696;2022-11-20T14:45:19;9.70;99.90
8095;DHT22;4090;49.270;8.696;2022-11-20T14:48:01;9.80;99.90
8095;DHT22;4090;49.270;8.696;2022-11-20T14:50:43;9.70;99.90
8095;DHT22;4090;49.270;8.696;2022-11-20T14:53:25;9.60;99.90
8095;DHT22;4090;49.270;8.696;2022-11-20T14:56:07;9.60;99.90
8095;DHT22;4090;49.270;8.696;2022-11-20T14:58:56;9.50;99.90
8095;DHT22;4090;49.270;8.696;2022-11-20T15:01:39;9.50;99.90
8095;DHT22;4090;49.270;8.696;2022-11-20T15:04:21;9.50;99.90
8095;DHT22;4090;49.270;8.696;2022-11-20T15:07:02;9.50;99.90
8095;DHT22;4090;49.270;8.696;2022-11-20T15:09:44;9.50;99.90
8095;DHT22;4090;49.270;8.696;2022-11-20T15:12:26;9.50;99.90
8095;DHT22;4090;49.270;8.696;2022-11-20T15:15:09;9.50;99.90
8095;DHT22;4090;49.270;8.696;2022-11-20T15:17:53;9.60;99.90
8095;DHT22;4090;49.270;8.696;2022-11-20T15:20:35;9.90;99.90
8095;DHT22;4090;49.270;8.696;2022-11-20T15:23:17;9.50;99.90
8095;DHT22;4090;49.270;8.696;2022-11-20T15:26:00;9.40;99.90
8095;DHT22;4090;49.270;8.696;2022-11-20T15:28:42;9.60;99.90
8095;DHT22;4090;49.270;8.696;2022-11-20T15:31:25;9.50;99.90
8095;DHT22;4090;49.270;8.696;2022-11-20T15:34:09;9.40;99.90
8095;DHT22;4090;49.270;8.696;2022-11-20T15:36:51;9.50;99.90
8095;DHT22;4090;49.270;8.696;2022-11-20T15:39:34;9.40;99.90
8095;DHT22;4090;49.270;8.696;2022-11-20T15:42:16;9.50;99.90
8095;DHT22;4090;49.270;8.696;2022-11-20T15:44:58;9.40;99.90
8095;DHT22;4090;49.270;8.696;2022-11-20T15:47:40;9.50;99.90
8095;DHT22;4090;49.270;8.696;2022-11-20T15:50:23;9.50;99.90
8095;DHT22;4090;49.270;8.696;2022-11-20T15:53:07;9.60;99.90
8095;DHT22;4090;49.270;8.696;2022-11-20T15:55:49;9.60;99.90
8095;DHT22;4090;49.270;8.696;2022-11-20T15:58:31;9.60;99.90
8095;DHT22;4090;49.270;8.696;2022-11-20T16:01:13;9.60;99.90
8095;DHT22;4090;49.270;8.696;2022-11-20T16:03:56;9.60;99.90
8095;DHT22;4090;49.270;8.696;2022-11-20T16:06:39;9.50;99.90
8095;DHT22;4090;49.270;8.696;2022-11-20T16:09:21;9.50;99.90
8095;DHT22;4090;49.270;8.696;2022-11-20T16:12:03;9.50;99.90
8095;DHT22;4090;49.270;8.696;2022-11-20T16:14:44;9.50;99.90
8095;DHT22;4090;49.270;8.696;2022-11-20T16:17:44;9.50;99.90
8095;DHT22;4090;49.270;8.696;2022-11-20T16:20:26;9.50;99.90
8095;DHT22;4090;49.270;8.696;2022-11-20T16:23:09;9.40;99.90
8095;DHT22;4090;49.270;8.696;2022-11-20T16:25:51;9.50;99.90
8095;DHT22;4090;49.270;8.696;2022-11-20T16:28:32;9.40;99.90
8095;DHT22;4090;49.270;8.696;2022-11-20T16:31:15;9.30;99.90
8095;DHT22;4090;49.270;8.696;2022-11-20T16:33:58;9.20;99.90
8095;DHT22;4090;49.270;8.696;2022-11-20T16:36:40;9.30;99.90
8095;DHT22;4090;49.270;8.696;2022-11-20T16:39:23;9.30;99.90
8095;DHT22;4090;49.270;8.696;2022-11-20T16:42:06;9.30;99.90
8095;DHT22;4090;49.270;8.696;2022-11-20T16:44:47;9.30;99.90
8095;DHT22;4090;49.270;8.696;2022-11-20T16:47:30;9.30;99.90
8095;DHT22;4090;49.270;8.696;2022-11-20T16:50:13;9.20;99.90
8095;DHT22;4090;49.270;8.696;2022-11-20T16:52:55;9.20;99.90
8095;DHT22;4090;49.270;8.696;2022-11-20T16:55:38;9.10;99.90
8095;DHT22;4090;49.270;8.696;2022-11-20T16:58:20;9.20;99.90
8095;DHT22;4090;49.270;8.696;2022-11-20T17:01:04;9.10;99.90
8095;DHT22;4090;49.270;8.696;2022-11-20T17:03:50;9.20;99.90
8095;DHT22;4090;49.270;8.696;2022-11-20T17:06:35;9.20;99.90
8095;DHT22;4090;49.270;8.696;2022-11-20T17:09:17;9.30;99.90
8095;DHT22;4090;49.270;8.696;2022-11-20T17:12:00;9.30;99.90
8095;DHT22;4090;49.270;8.696;2022-11-20T17:14:42;9.30;99.90
8095;DHT22;4090;49.270;8.696;2022-11-20T17:17:23;9.30;99.90
8095;DHT22;4090;49.270;8.696;2022-11-20T17:20:06;9.40;99.90
8095;DHT22;4090;49.270;8.696;2022-11-20T17:22:48;9.30;99.90
8095;DHT22;4090;49.270;8.696;2022-11-20T17:25:31;9.30;99.90
8095;DHT22;4090;49.270;8.696;2022-11-20T17:28:14;9.30;99.90
8095;DHT22;4090;49.270;8.696;2022-11-20T17:30:58;9.30;99.90
8095;DHT22;4090;49.270;8.696;2022-11-20T17:33:40;9.40;99.90
8095;DHT22;4090;49.270;8.696;2022-11-20T17:36:22;9.50;99.90
8095;DHT22;4090;49.270;8.696;2022-11-20T17:39:04;9.40;99.90
8095;DHT22;4090;49.270;8.696;2022-11-20T17:41:46;9.40;99.90
8095;DHT22;4090;49.270;8.696;2022-11-20T17:44:49;9.20;99.90
8095;DHT22;4090;49.270;8.696;2022-11-20T17:47:31;9.10;99.90
8095;DHT22;4090;49.270;8.696;2022-11-20T17:50:15;8.90;99.90
8095;DHT22;4090;49.270;8.696;2022-11-20T17:52:57;8.80;99.90
8095;DHT22;4090;49.270;8.696;2022-11-20T17:55:40;8.90;99.90
8095;DHT22;4090;49.270;8.696;2022-11-20T17:58:39;9.00;99.90
8095;DHT22;4090;49.270;8.696;2022-11-20T18:01:23;8.90;99.90
8095;DHT22;4090;49.270;8.696;2022-11-20T18:04:04;8.90;99.90
8095;DHT22;4090;49.270;8.696;2022-11-20T18:06:46;8.90;99.90
8095;DHT22;4090;49.270;8.696;2022-11-20T18:09:28;9.00;99.90
8095;DHT22;4090;49.270;8.696;2022-11-20T18:12:10;8.90;99.90
8095;DHT22;4090;49.270;8.696;2022-11-20T18:14:52;9.00;99.90